Time;durP1;ratioP1;P1;durP2;ratioP2;P2;SDS_P1;SDS_P2;PMS_P1;PMS_P2;Temp;Humidity;BMP_temperature;BMP_pressure;BME280_temperature;BME280_humidity;BME280_pressure;Samples;Min_cycle;Max_cycle;Signal;HPM_P1;HPM_P2
2022/07/02 00:00:07;;;;;;;3.90;3.70;;;;;;;9.05;100.00;97810.78;4976406;28;21119;-64
2022/07/02 00:02:37;;;;;;;4.17;3.90;;;;;;;8.97;100.00;97810.75;4929137;28;20213;-61
2022/07/02 00:05:07;;;;;;;4.03;3.83;;;;;;;8.93;100.00;97812.06;4981401;28;20213;-62
2022/07/02 00:07:35;;;;;;;3.93;3.63;;;;;;;8.97;100.00;97816.03;4978263;28;20727;-61
2022/07/02 00:10:04;;;;;;;4.27;4.07;;;;;;;8.97;100.00;97808.13;4966093;28;20327;-63
2022/07/02 00:12:32;;;;;;;4.27;3.97;;;;;;;9.07;100.00;97814.09;4974974;28;20256;-61
2022/07/02 00:15:01;;;;;;;4.33;4.07;;;;;;;9.05;100.00;97816.09;4977866;28;20282;-62
2022/07/02 00:17:31;;;;;;;4.00;3.70;;;;;;;9.01;100.00;97806.81;4946493;28;20303;-64
2022/07/02 00:20:00;;;;;;;4.07;3.87;;;;;;;8.97;100.00;97803.69;4978353;28;20610;-63
2022/07/02 00:22:28;;;;;;;3.93;3.73;;;;;;;8.96;100.00;97809.94;4979435;28;20430;-64
2022/07/02 00:24:56;;;;;;;3.93;3.63;;;;;;;8.86;100.00;97805.75;4958635;28;20638;-63
2022/07/02 00:27:27;;;;;;;3.70;3.50;;;;;;;8.85;100.00;97807.56;4983558;28;20326;-63
2022/07/02 00:29:58;;;;;;;4.57;4.27;;;;;;;8.91;100.00;97817.53;4978646;28;20249;-62
2022/07/02 00:32:28;;;;;;;4.20;3.90;;;;;;;8.98;100.00;97810.63;4945437;28;21424;-63
2022/07/02 00:34:58;;;;;;;4.73;4.47;;;;;;;8.91;100.00;97806.13;4978929;28;20205;-63
2022/07/02 00:37:27;;;;;;;4.07;3.87;;;;;;;8.98;100.00;97807.13;4977844;28;20318;-61
2022/07/02 00:39:55;;;;;;;4.30;4.10;;;;;;;8.78;100.00;97802.09;4979572;28;20883;-61
2022/07/02 00:42:24;;;;;;;3.97;3.77;;;;;;;8.79;100.00;97805.56;4959305;28;20256;-63
2022/07/02 00:44:53;;;;;;;3.83;3.60;;;;;;;8.76;100.00;97803.22;4982615;28;20257;-61
2022/07/02 00:47:22;;;;;;;3.33;3.20;;;;;;;8.74;100.00;97799.91;4980105;28;20267;-63
2022/07/02 00:49:50;;;;;;;3.80;3.60;;;;;;;8.64;100.00;97800.88;4947271;28;20331;-63
2022/07/02 00:52:20;;;;;;;3.93;3.63;;;;;;;8.73;100.00;97798.25;4979142;28;20225;-64
2022/07/02 00:54:48;;;;;;;3.73;3.53;;;;;;;8.62;100.00;97805.47;4982861;28;20201;-64
2022/07/02 00:57:16;;;;;;;3.30;3.10;;;;;;;8.65;100.00;97807.81;4960854;28;20267;-65
2022/07/02 00:59:44;;;;;;;3.60;3.40;;;;;;;8.56;100.00;97802.63;4985998;28;20204;-63
2022/07/02 01:02:12;;;;;;;3.03;2.93;;;;;;;8.50;100.00;97804.06;4975553;28;20889;-66
2022/07/02 01:04:41;;;;;;;3.83;3.63;;;;;;;8.47;100.00;97804.34;4950917;28;20327;-63
2022/07/02 01:07:12;;;;;;;3.97;3.77;;;;;;;8.48;100.00;97801.56;4978561;28;20312;-60
2022/07/02 01:12:29;;;;;;;3.90;3.60;;;;;;;8.68;100.00;97799.56;4962550;28;20233;-63
2022/07/02 01:14:58;;;;;;;3.77;3.47;;;;;;;8.48;100.00;97798.06;4979245;28;20260;-62
2022/07/02 01:17:26;;;;;;;3.80;3.60;;;;;;;8.38;100.00;97798.19;4983967;28;20221;-61
2022/07/02 01:19:54;;;;;;;3.00;2.90;;;;;;;8.36;100.00;97797.53;4946460;28;20356;-61
2022/07/02 01:22:24;;;;;;;3.50;3.37;;;;;;;8.37;100.00;97800.00;4985061;28;20205;-64
2022/07/02 01:24:54;;;;;;;4.10;3.80;;;;;;;8.40;100.00;97801.50;4982802;28;20758;-61
2022/07/02 01:27:24;;;;;;;4.23;3.93;;;;;;;8.48;100.00;97801.56;4967375;28;20550;-64
2022/07/02 01:29:52;;;;;;;4.23;3.83;;;;;;;8.46;100.00;97794.75;4982098;28;20867;-61
2022/07/02 01:32:20;;;;;;;3.60;3.40;;;;;;;8.50;100.00;97796.97;4984889;28;20201;-63
2022/07/02 01:34:50;;;;;;;3.50;3.30;;;;;;;8.57;100.00;97799.84;4952594;28;20320;-63
2022/07/02 01:37:20;;;;;;;3.33;3.17;;;;;;;8.64;100.00;97792.94;4962120;28;20894;-62
2022/07/02 01:39:50;;;;;;;3.27;3.07;;;;;;;8.76;100.00;97788.22;4979310;28;20214;-63
2022/07/02 01:42:19;;;;;;;3.73;3.50;;;;;;;9.01;100.00;97788.31;4958130;28;20307;-64
2022/07/02 01:44:48;;;;;;;3.90;3.60;;;;;;;8.86;100.00;97787.25;4985529;28;20627;-63
2022/07/02 01:47:16;;;;;;;3.93;3.60;;;;;;;8.87;100.00;97788.91;4977759;28;20225;-64
2022/07/02 01:49:45;;;;;;;4.60;4.30;;;;;;;8.78;100.00;97791.53;4955453;28;21071;-63
2022/07/02 01:52:15;;;;;;;4.33;4.03;;;;;;;8.76;100.00;97785.56;4989287;28;20899;-64
2022/07/02 01:54:43;;;;;;;4.20;3.90;;;;;;;8.90;100.00;97796.53;4979277;28;20917;-59
2022/07/02 01:57:13;;;;;;;5.23;4.83;;;;;;;8.90;100.00;97802.66;4982985;28;20283;-63
2022/07/02 01:59:41;;;;;;;5.77;5.30;;;;;;;8.96;100.00;97806.47;4964492;28;20218;-63
2022/07/02 02:02:10;;;;;;;4.70;4.40;;;;;;;8.90;100.00;97805.31;4982001;28;20267;-60
2022/07/02 02:04:39;;;;;;;5.07;4.67;;;;;;;8.97;100.00;97806.31;4953405;28;20320;-62
2022/07/02 02:07:08;;;;;;;5.43;5.03;;;;;;;8.96;100.00;97807.31;4986961;28;21115;-62
2022/07/02 02:09:36;;;;;;;4.83;4.53;;;;;;;8.98;100.00;97807.13;4942463;28;20783;-58
2022/07/02 02:12:05;;;;;;;4.90;4.60;;;;;;;8.98;100.00;97813.25;4967155;28;20989;-63
2022/07/02 02:14:35;;;;;;;4.67;4.37;;;;;;;9.15;100.00;97801.94;4980449;28;20320;-63
2022/07/02 02:17:04;;;;;;;4.60;4.30;;;;;;;9.21;100.00;97809.22;4963391;28;21113;-63
2022/07/02 02:19:32;;;;;;;4.70;4.40;;;;;;;9.24;100.00;97814.19;4986337;28;20263;-58
2022/07/02 02:22:00;;;;;;;5.30;4.90;;;;;;;9.32;100.00;97818.69;4978481;28;20284;-63
2022/07/02 02:24:29;;;;;;;4.87;4.47;;;;;;;9.18;100.00;97813.00;4952753;28;20221;-63
2022/07/02 02:26:57;;;;;;;5.60;5.03;;;;;;;9.11;100.00;97810.19;4975729;28;20252;-63
2022/07/02 02:29:25;;;;;;;6.43;5.90;;;;;;;9.21;100.00;97811.88;4983902;28;20304;-60
2022/07/02 02:31:55;;;;;;;5.90;5.40;;;;;;;9.21;100.00;97812.69;4980677;28;20378;-61
2022/07/02 02:34:23;;;;;;;6.03;5.63;;;;;;;9.27;100.00;97814.69;4962508;28;20701;-63
2022/07/02 02:36:51;;;;;;;5.87;5.37;;;;;;;9.21;100.00;97820.59;4976331;28;20304;-60
2022/07/02 02:39:19;;;;;;;5.10;4.80;;;;;;;9.29;100.00;97817.16;4945044;28;20304;-63
2022/07/02 02:41:47;;;;;;;6.13;5.60;;;;;;;9.30;100.00;97816.19;4979597;28;20977;-61
2022/07/02 02:44:15;;;;;;;9.87;6.10;;;;;;;9.30;100.00;97820.66;4980513;28;20229;-63
2022/07/02 02:46:43;;;;;;;6.50;5.03;;;;;;;9.12;100.00;97826.84;4983170;28;20229;-61
2022/07/02 02:49:13;;;;;;;5.00;4.60;;;;;;;9.35;100.00;97821.81;4958298;28;20638;-63
2022/07/02 02:51:41;;;;;;;7.00;6.37;;;;;;;9.29;100.00;97829.59;4984895;28;20314;-60
2022/07/02 02:54:09;;;;;;;6.07;5.47;;;;;;;9.22;100.00;97824.09;4981367;28;20233;-63
2022/07/02 02:56:37;;;;;;;5.50;5.10;;;;;;;9.43;100.00;97822.81;4946836;28;20311;-62
2022/07/02 02:59:05;;;;;;;10.47;5.87;;;;;;;9.43;100.00;97826.31;4982944;28;20295;-62
2022/07/02 03:01:33;;;;;;;5.20;4.90;;;;;;;9.40;100.00;97827.44;4985347;28;20322;-64
2022/07/02 03:04:01;;;;;;;5.97;5.47;;;;;;;9.48;100.00;97829.31;4985225;28;20236;-59
2022/07/02 03:06:31;;;;;;;5.40;4.90;;;;;;;9.52;100.00;97830.63;4970814;28;20240;-61
2022/07/02 03:08:59;;;;;;;6.17;5.57;;;;;;;9.40;100.00;97839.88;4985409;28;20280;-63
2022/07/02 03:11:27;;;;;;;9.47;5.70;;;;;;;9.35;100.00;97839.50;4947507;28;20268;-61
2022/07/02 03:13:56;;;;;;;8.37;5.47;;;;;;;9.35;100.00;97842.97;4976585;28;21208;-63
2022/07/02 03:16:24;;;;;;;5.70;5.30;;;;;;;9.47;100.00;97848.81;4986531;28;20740;-63
2022/07/02 03:18:52;;;;;;;5.27;4.80;;;;;;;9.31;100.00;97852.22;4976954;28;20204;-60
2022/07/02 03:21:20;;;;;;;7.67;4.90;;;;;;;9.09;100.00;97861.53;4958900;28;20732;-62
2022/07/02 03:23:49;;;;;;;5.93;5.03;;;;;;;9.10;100.00;97864.03;4976901;28;20242;-60
2022/07/02 03:26:17;;;;;;;5.03;4.73;;;;;;;9.21;100.00;97865.56;4983434;28;20252;-63
2022/07/02 03:28:45;;;;;;;5.03;4.70;;;;;;;9.27;100.00;97872.84;4942609;28;20306;-60
2022/07/02 03:31:13;;;;;;;7.03;4.63;;;;;;;9.54;100.00;97868.34;4982407;28;20231;-63
2022/07/02 03:33:42;;;;;;;10.17;5.47;;;;;;;9.36;100.00;97867.63;4976083;28;20855;-61
2022/07/02 03:36:11;;;;;;;5.07;4.57;;;;;;;9.45;100.00;97864.00;4962703;28;20328;-63
2022/07/02 03:38:39;;;;;;;6.10;4.60;;;;;;;9.43;100.00;97868.63;4980113;28;20312;-62
2022/07/02 03:41:09;;;;;;;4.40;4.10;;;;;;;9.53;100.00;97871.97;4979255;28;20272;-63
2022/07/02 03:43:37;;;;;;;4.80;4.50;;;;;;;9.43;100.00;97878.38;4942780;28;20228;-60
2022/07/02 03:46:05;;;;;;;5.10;4.67;;;;;;;9.52;100.00;97872.16;4982502;28;20370;-59
2022/07/02 03:48:33;;;;;;;4.80;4.40;;;;;;;9.63;100.00;97876.28;4981837;28;20271;-60
2022/07/02 03:51:01;;;;;;;8.50;5.57;;;;;;;9.65;100.00;97872.50;4959035;28;20987;-62
2022/07/02 03:53:30;;;;;;;5.47;5.07;;;;;;;9.89;100.00;97870.06;4979832;28;20990;-63
2022/07/02 03:55:58;;;;;;;5.20;4.80;;;;;;;9.94;100.00;97871.25;4976833;28;20867;-64
2022/07/02 03:58:27;;;;;;;5.53;5.13;;;;;;;10.12;100.00;97872.91;4943395;28;20221;-63
2022/07/02 04:01:01;;;;;;;5.97;5.50;;;;;;;10.08;100.00;97872.44;4978244;28;20205;-63
2022/07/02 04:03:29;;;;;;;7.73;5.67;;;;;;;10.31;100.00;97866.47;4982552;28;20298;-60
2022/07/02 04:05:57;;;;;;;12.87;5.47;;;;;;;10.23;100.00;97877.91;4981556;28;20296;-63
2022/07/02 04:08:25;;;;;;;5.50;5.03;;;;;;;9.98;100.00;97874.38;4963831;28;20204;-61
2022/07/02 04:10:53;;;;;;;6.17;5.57;;;;;;;9.90;100.00;97875.22;4982625;28;20508;-63
2022/07/02 04:13:21;;;;;;;7.60;4.97;;;;;;;9.85;100.00;97882.81;4941675;28;26635;-63
2022/07/02 04:15:51;;;;;;;7.07;6.07;;;;;;;10.02;100.00;97877.53;4939994;28;20240;-61
2022/07/02 04:18:19;;;;;;;5.80;5.40;;;;;;;10.32;100.00;97865.47;4952226;28;20212;-61
2022/07/02 04:20:48;;;;;;;5.90;5.33;;;;;;;10.49;100.00;97865.53;4979002;28;20405;-59
2022/07/02 04:23:16;;;;;;;5.80;5.30;;;;;;;10.37;100.00;97870.28;4939612;28;20210;-60
2022/07/02 04:25:44;;;;;;;6.13;4.93;;;;;;;10.33;100.00;97861.03;4978040;28;20693;-61
2022/07/02 04:28:12;;;;;;;5.87;5.47;;;;;;;10.39;100.00;97863.81;4980635;28;20288;-62
2022/07/02 04:30:41;;;;;;;7.17;5.20;;;;;;;10.55;100.00;97864.84;4950554;28;20256;-61
2022/07/02 04:33:10;;;;;;;4.93;4.60;;;;;;;10.56;100.00;97858.56;4976882;28;20205;-63
2022/07/02 04:35:39;;;;;;;10.80;6.10;;;;;;;10.33;100.00;97863.66;4957130;28;20229;-62
2022/07/02 04:38:07;;;;;;;5.00;4.53;;;;;;;10.23;100.00;97866.47;4942003;28;20751;-63
2022/07/02 04:40:35;;;;;;;7.97;5.40;;;;;;;10.47;100.00;97865.69;4975213;28;20295;-63
2022/07/02 04:43:03;;;;;;;5.70;5.20;;;;;;;10.60;100.00;97857.22;4979124;28;20240;-64
2022/07/02 04:45:31;;;;;;;7.03;5.17;;;;;;;10.59;100.00;97862.69;4987244;28;20201;-63
2022/07/02 04:47:59;;;;;;;5.23;4.73;;;;;;;10.80;100.00;97870.94;4950294;28;20306;-61
2022/07/02 04:50:29;;;;;;;8.43;4.93;;;;;;;10.80;100.00;97872.78;4958498;28;21857;-60
2022/07/02 04:52:57;;;;;;;5.53;4.97;;;;;;;10.60;100.00;97865.16;4953877;28;20505;-59
2022/07/02 04:55:26;;;;;;;6.38;5.88;;;;;;;10.88;100.00;97871.91;4941804;28;21771;-62
2022/07/02 04:57:54;;;;;;;6.70;5.00;;;;;;;10.65;100.00;97875.28;4983199;28;20320;-59
2022/07/02 05:00:22;;;;;;;4.60;4.30;;;;;;;10.89;100.00;97869.13;4981945;28;20362;-64
2022/07/02 05:02:50;;;;;;;5.10;4.60;;;;;;;11.18;100.00;97872.19;4944519;28;20268;-61
2022/07/02 05:05:18;;;;;;;5.73;5.23;;;;;;;11.16;100.00;97877.63;4980874;28;20221;-62
2022/07/02 05:07:48;;;;;;;4.07;3.77;;;;;;;11.41;100.00;97880.22;4988193;28;20621;-62
2022/07/02 05:10:16;;;;;;;4.50;4.20;;;;;;;11.04;100.00;97876.34;4943683;28;20215;-58
2022/07/02 05:12:44;;;;;;;4.37;4.07;;;;;;;10.85;100.00;97881.06;4960744;28;20217;-61
2022/07/02 05:15:12;;;;;;;12.17;5.20;;;;;;;10.99;100.00;97876.88;4951279;28;20693;-62
2022/07/02 05:17:41;;;;;;;5.50;5.10;;;;;;;11.11;100.00;97893.25;4940956;28;20818;-62
2022/07/02 05:20:10;;;;;;;5.13;4.73;;;;;;;11.34;100.00;97882.72;4982152;28;20443;-63
2022/07/02 05:22:41;;;;;;;4.90;4.50;;;;;;;11.43;100.00;97886.19;4965753;28;20277;-64
2022/07/02 05:25:10;;;;;;;4.87;4.40;;;;;;;11.47;100.00;97882.19;4945909;28;20448;-63
2022/07/02 05:27:39;;;;;;;4.47;4.17;;;;;;;11.32;100.00;97886.56;4956840;28;20230;-59
2022/07/02 05:30:07;;;;;;;5.60;5.20;;;;;;;11.32;100.00;97892.69;4966853;28;20299;-62
2022/07/02 05:32:36;;;;;;;5.67;5.27;;;;;;;11.55;100.00;97891.94;4939486;28;20284;-63
2022/07/02 05:35:04;;;;;;;5.57;5.10;;;;;;;11.53;100.00;97902.72;4981328;28;20236;-62
2022/07/02 05:37:32;;;;;;;5.23;4.83;;;;;;;11.58;100.00;97899.56;4984717;28;20717;-59
2022/07/02 05:40:00;;;;;;;4.93;4.57;;;;;;;11.76;100.00;97894.00;4956771;28;20220;-61
2022/07/02 05:42:30;;;;;;;7.30;5.40;;;;;;;11.67;100.00;97895.03;4964339;28;20209;-61
2022/07/02 05:44:58;;;;;;;5.60;5.10;;;;;;;12.06;100.00;97903.97;4970311;28;20310;-63
2022/07/02 05:47:27;;;;;;;5.70;5.20;;;;;;;12.02;100.00;97895.53;4951953;28;20246;-60
2022/07/02 05:49:56;;;;;;;6.23;5.73;;;;;;;12.13;100.00;97900.44;4976997;28;20196;-60
2022/07/02 05:52:24;;;;;;;6.97;6.37;;;;;;;12.53;100.00;97891.50;4982528;28;20295;-60
2022/07/02 05:54:52;;;;;;;6.60;6.10;;;;;;;12.35;100.00;97900.63;4971117;28;20532;-60
2022/07/02 05:57:20;;;;;;;7.00;6.40;;;;;;;12.59;100.00;97898.75;4967370;28;20256;-57
2022/07/02 05:59:50;;;;;;;6.70;6.20;;;;;;;13.01;100.00;97904.53;4963077;28;20606;-60
2022/07/02 06:02:18;;;;;;;7.67;6.93;;;;;;;12.61;100.00;97902.06;4983332;28;20228;-58
2022/07/02 06:04:46;;;;;;;7.23;6.43;;;;;;;12.39;100.00;97906.41;4941108;28;20478;-62
2022/07/02 06:10:00;;;;;;;6.40;5.90;;;;;;;12.44;100.00;97901.38;4958936;28;20220;-60
2022/07/02 06:12:28;;;;;;;7.53;6.93;;;;;;;12.52;100.00;97898.69;4953998;28;20810;-61
2022/07/02 06:14:57;;;;;;;7.93;7.33;;;;;;;12.74;100.00;97899.66;4964958;28;20210;-60
2022/07/02 06:17:25;;;;;;;6.67;6.17;;;;;;;13.11;100.00;97901.63;4969214;28;20756;-62
2022/07/02 06:19:53;;;;;;;6.63;6.13;;;;;;;13.55;100.00;97907.97;4940747;28;20746;-59
2022/07/02 06:22:22;;;;;;;6.47;5.97;;;;;;;13.31;100.00;97913.34;4979305;28;20371;-63
2022/07/02 06:24:50;;;;;;;6.73;6.23;;;;;;;13.41;100.00;97907.75;4915796;28;20388;-55
2022/07/02 06:27:18;;;;;;;7.20;6.60;;;;;;;13.30;100.00;97902.91;4958940;28;20532;-61
2022/07/02 06:29:48;;;;;;;6.93;6.33;;;;;;;13.12;100.00;97909.41;4980895;28;20289;-63
2022/07/02 06:32:17;;;;;;;6.53;6.03;;;;;;;13.26;100.00;97904.28;4924886;28;20221;-63
2022/07/02 06:34:46;;;;;;;7.47;6.87;;;;;;;13.48;100.00;97913.22;4978183;28;20247;-61
2022/07/02 06:37:14;;;;;;;8.10;7.37;;;;;;;13.38;100.00;97908.13;4970241;28;20276;-63
2022/07/02 06:39:42;;;;;;;7.43;6.83;;;;;;;14.31;100.00;97906.78;4942786;28;20297;-60
2022/07/02 06:42:23;;;;;;;6.87;6.37;;;;;;;14.81;100.00;97895.31;4983760;28;20349;-61
2022/07/02 06:44:53;;;;;;;7.60;7.00;;;;;;;14.36;100.00;97903.53;4977284;28;20249;-60
2022/07/02 06:47:27;;;;;;;7.33;6.73;;;;;;;14.37;100.00;97903.34;4967777;28;20237;-64
2022/07/02 06:49:56;;;;;;;7.40;6.83;;;;;;;14.72;100.00;97895.47;4976878;28;20202;-63
2022/07/02 06:52:24;;;;;;;8.63;7.93;;;;;;;14.58;100.00;97891.00;4982652;28;20626;-61
2022/07/02 06:54:53;;;;;;;8.33;7.67;;;;;;;14.67;100.00;97889.03;4935025;28;20295;-60
2022/07/02 06:57:21;;;;;;;8.63;8.03;;;;;;;14.74;100.00;97888.09;4979317;28;20233;-63
2022/07/02 06:59:53;;;;;;;7.77;7.17;;;;;;;14.77;100.00;97897.53;4975403;28;20592;-60
2022/07/02 07:02:21;;;;;;;7.37;6.73;;;;;;;15.25;100.00;97899.50;4972574;28;20743;-62
2022/07/02 07:04:51;;;;;;;8.13;7.53;;;;;;;14.88;100.00;97902.38;4978019;28;20807;-59
2022/07/02 07:07:19;;;;;;;8.60;7.90;;;;;;;15.03;100.00;97904.09;4980645;28;20218;-62
2022/07/02 07:09:47;;;;;;;6.87;6.37;;;;;;;15.88;100.00;97903.94;4980439;28;20193;-61
2022/07/02 07:12:15;;;;;;;8.07;7.47;;;;;;;15.41;100.00;97893.03;4938779;28;20216;-61
2022/07/02 07:14:43;;;;;;;6.80;6.30;;;;;;;15.81;100.00;97903.06;4975751;28;20205;-61
2022/07/02 07:17:12;;;;;;;8.10;7.50;;;;;;;15.60;100.00;97910.16;4962048;28;20358;-63
2022/07/02 07:19:40;;;;;;;7.53;6.93;;;;;;;15.82;100.00;97904.72;4983179;28;20209;-60
2022/07/02 07:22:10;;;;;;;7.20;6.70;;;;;;;16.15;100.00;97905.88;4977668;28;20293;-63
2022/07/02 07:24:38;;;;;;;7.17;6.67;;;;;;;16.55;100.00;97907.78;4984471;28;20237;-60
2022/07/02 07:27:06;;;;;;;8.23;7.60;;;;;;;16.16;100.00;97910.19;4938241;28;21886;-60
2022/07/02 07:29:35;;;;;;;8.60;8.00;;;;;;;16.26;100.00;97913.28;4975637;28;20213;-60
2022/07/02 07:32:04;;;;;;;8.57;7.87;;;;;;;16.27;100.00;97906.09;4962757;28;22177;-65
2022/07/02 07:34:32;;;;;;;8.97;8.27;;;;;;;16.39;100.00;97915.16;4981811;28;20267;-62
2022/07/02 07:37:00;;;;;;;8.50;7.90;;;;;;;15.97;100.00;97912.63;4976645;28;20225;-64
2022/07/02 07:39:30;;;;;;;8.30;7.70;;;;;;;16.15;100.00;97911.22;4982718;28;20272;-63
2022/07/02 07:41:58;;;;;;;9.17;8.37;;;;;;;16.35;100.00;97908.59;4983529;28;20787;-63
2022/07/02 07:44:26;;;;;;;8.50;7.90;;;;;;;15.93;100.00;97902.53;4941575;28;20266;-62
2022/07/02 07:46:54;;;;;;;9.40;8.60;;;;;;;16.31;100.00;97904.66;4975969;28;20718;-61
2022/07/02 07:49:22;;;;;;;9.77;8.97;;;;;;;17.11;100.00;97898.53;4966105;28;20381;-62
2022/07/02 07:51:51;;;;;;;9.10;8.40;;;;;;;17.57;100.00;97898.63;4981685;28;20217;-60
2022/07/02 07:54:19;;;;;;;9.00;8.40;;;;;;;17.26;100.00;97909.00;4979678;28;20198;-63
2022/07/02 07:56:48;;;;;;;9.10;8.40;;;;;;;17.18;100.00;97901.19;4979023;28;20284;-62
2022/07/02 07:59:16;;;;;;;8.13;7.53;;;;;;;16.81;100.00;97903.47;4945017;28;20209;-61
2022/07/02 08:01:45;;;;;;;9.57;8.87;;;;;;;16.90;100.00;97899.56;4976535;28;20411;-60
2022/07/02 08:04:13;;;;;;;9.17;8.47;;;;;;;17.25;100.00;97901.19;4966377;28;20562;-63
2022/07/02 08:06:41;;;;;;;8.17;7.57;;;;;;;17.35;100.00;97898.88;4980988;28;20279;-60
2022/07/02 08:09:09;;;;;;;8.07;7.57;;;;;;;17.46;100.00;97897.41;4977620;28;20725;-64
2022/07/02 08:11:37;;;;;;;7.73;7.20;;;;;;;16.77;100.00;97906.56;4978844;28;20209;-61
2022/07/02 08:14:07;;;;;;;9.00;8.40;;;;;;;16.59;100.00;97898.31;4940591;28;20607;-63
2022/07/02 08:16:35;;;;;;;8.07;7.57;;;;;;;16.46;100.00;97897.28;4982106;28;20299;-59
2022/07/02 08:19:03;;;;;;;8.60;8.00;;;;;;;16.64;100.00;97899.34;4964059;28;20712;-63
2022/07/02 08:21:31;;;;;;;8.30;7.70;;;;;;;16.34;100.00;97894.41;4981576;28;20238;-63
2022/07/02 08:23:59;;;;;;;7.47;6.97;;;;;;;16.47;100.00;97898.09;4974309;28;20472;-64
2022/07/02 08:26:28;;;;;;;8.10;7.50;;;;;;;16.70;100.00;97900.38;4963108;28;20320;-61
2022/07/02 08:29:02;;;;;;;8.20;7.60;;;;;;;16.79;100.00;97892.97;4952219;28;21036;-64
2022/07/02 08:31:32;;;;;;;8.23;7.63;;;;;;;16.75;100.00;97892.56;4936690;28;20866;-62
2022/07/02 08:34:00;;;;;;;8.80;8.10;;;;;;;16.91;100.00;97885.16;4968528;28;20677;-61
2022/07/02 08:36:29;;;;;;;9.20;8.50;;;;;;;16.89;100.00;97881.84;4959594;28;20509;-65
2022/07/02 08:38:57;;;;;;;8.00;7.50;;;;;;;17.19;100.00;97882.25;4970481;28;20216;-65
2022/07/02 08:41:25;;;;;;;9.60;8.60;;;;;;;17.12;100.00;97884.13;4962572;28;20243;-63
2022/07/02 08:43:54;;;;;;;10.07;8.40;;;;;;;17.50;100.00;97877.19;4980713;28;20497;-61
2022/07/02 08:46:23;;;;;;;7.53;7.03;;;;;;;17.74;100.00;97885.56;4937911;28;20781;-64
2022/07/02 08:48:54;;;;;;;7.80;7.20;;;;;;;17.88;100.00;97884.47;4978416;28;20209;-63
2022/07/02 08:51:23;;;;;;;7.80;7.30;;;;;;;17.79;100.00;97880.38;4975734;28;20885;-63
2022/07/02 08:53:51;;;;;;;8.17;7.57;;;;;;;18.08;100.00;97873.66;4970942;28;20193;-60
2022/07/02 08:56:20;;;;;;;8.10;7.40;;;;;;;17.88;100.00;97876.41;4966968;28;20229;-63
2022/07/02 08:58:50;;;;;;;8.70;8.00;;;;;;;17.82;100.00;97879.97;4978758;28;20225;-63
2022/07/02 09:01:19;;;;;;;8.13;7.63;;;;;;;18.30;100.00;97881.38;4944691;28;20208;-63
2022/07/02 09:03:48;;;;;;;7.23;6.73;;;;;;;18.26;100.00;97872.13;4954635;28;20243;-64
2022/07/02 09:06:19;;;;;;;7.00;6.60;;;;;;;18.26;100.00;97864.06;4979343;28;20252;-64
2022/07/02 09:08:47;;;;;;;7.50;7.00;;;;;;;18.46;100.00;97863.09;4964364;28;23304;-64
2022/07/02 09:11:16;;;;;;;6.53;6.03;;;;;;;18.45;100.00;97864.13;4976592;28;20529;-65
2022/07/02 09:13:44;;;;;;;6.60;6.20;;;;;;;18.39;100.00;97857.78;4965452;28;20296;-64
2022/07/02 09:16:13;;;;;;;6.00;5.60;;;;;;;18.55;100.00;97864.44;4941804;28;20229;-64
2022/07/02 09:18:41;;;;;;;6.23;5.93;;;;;;;18.15;100.00;97862.06;4975416;28;20315;-64
2022/07/02 09:21:10;;;;;;;5.00;4.70;;;;;;;18.38;100.00;97853.47;4983345;28;20217;-64
2022/07/02 09:23:48;;;;;;;5.97;5.63;;;;;;;18.59;100.00;97854.13;4962151;28;20201;-60
2022/07/02 09:26:20;;;;;;;4.60;4.30;;;;;;;18.55;100.00;97851.03;4977172;28;20224;-61
2022/07/02 09:28:55;;;;;;;4.60;4.40;;;;;;;18.78;100.00;97839.72;4966294;28;20208;-62
2022/07/02 09:31:23;;;;;;;4.40;4.20;;;;;;;19.01;100.00;97840.94;4943417;28;20209;-59
2022/07/02 09:33:51;;;;;;;8.80;4.03;;;;;;;18.90;100.00;97838.97;4979248;28;20201;-62
2022/07/02 09:36:20;;;;;;;4.90;4.57;;;;;;;18.86;100.00;97837.78;4981144;28;20772;-64
2022/07/02 09:38:52;;;;;;;3.97;3.77;;;;;;;19.12;100.00;97833.19;4963837;28;20229;-65
2022/07/02 09:41:21;;;;;;;3.77;3.57;;;;;;;19.24;100.00;97832.22;4967955;28;20254;-62
2022/07/02 09:43:53;;;;;;;3.50;3.30;;;;;;;19.35;100.00;97836.03;4967612;28;20209;-63
2022/07/02 09:46:22;;;;;;;4.40;4.20;;;;;;;18.97;100.00;97830.88;4947959;28;20216;-64
2022/07/02 09:48:51;;;;;;;3.70;3.50;;;;;;;19.44;100.00;97830.34;4977509;28;20839;-64
2022/07/02 09:51:19;;;;;;;3.70;3.50;;;;;;;19.42;100.00;97832.44;4980642;28;20259;-63
2022/07/02 09:53:51;;;;;;;3.53;3.23;;;;;;;19.57;100.00;97824.00;4967359;28;20209;-64
2022/07/02 09:56:20;;;;;;;3.60;3.40;;;;;;;19.67;100.00;97827.78;4962504;28;20310;-61
2022/07/02 09:58:48;;;;;;;3.13;3.00;;;;;;;20.19;100.00;97828.34;4970758;28;20233;-63
2022/07/02 10:01:19;;;;;;;3.03;2.90;;;;;;;20.24;100.00;97821.19;4955576;28;20216;-64
2022/07/02 10:03:49;;;;;;;3.20;3.10;;;;;;;20.16;100.00;97824.22;4979442;28;20249;-63
2022/07/02 10:06:17;;;;;;;3.00;2.80;;;;;;;20.38;100.00;97811.03;4980323;28;20310;-62
2022/07/02 10:08:55;;;;;;;2.50;2.40;;;;;;;20.41;100.00;97807.09;4982487;28;20256;-62
2022/07/02 10:11:24;;;;;;;2.73;2.53;;;;;;;20.47;100.00;97803.47;4964336;28;20212;-61
2022/07/02 10:13:52;;;;;;;3.07;2.87;;;;;;;20.53;100.00;97793.63;4980092;28;20694;-63
2022/07/02 10:16:22;;;;;;;2.13;2.03;;;;;;;20.49;100.00;97787.88;4964172;28;20965;-60
2022/07/02 10:18:51;;;;;;;2.70;2.50;;;;;;;20.67;100.00;97794.22;4940085;28;20226;-62
2022/07/02 10:21:20;;;;;;;2.20;2.20;;;;;;;20.95;100.00;97779.22;4941227;28;20209;-60
2022/07/02 10:23:48;;;;;;;2.10;2.00;;;;;;;21.05;100.00;97784.03;4976804;28;20540;-62
2022/07/02 10:26:18;;;;;;;2.10;2.00;;;;;;;21.31;100.00;97776.47;4967010;28;20234;-61
2022/07/02 10:28:46;;;;;;;2.00;1.90;;;;;;;20.81;99.31;97776.81;4974915;28;20217;-63
2022/07/02 10:31:17;;;;;;;1.80;1.80;;;;;;;;;;4961066;28;20217;-59
2022/07/02 10:33:50;;;;;;;2.73;2.50;;;;;;;20.91;100.00;97775.38;4943820;28;20213;-63
2022/07/02 10:36:20;;;;;;;2.40;2.20;;;;;;;21.19;100.00;97771.09;4973641;28;20252;-61
2022/07/02 10:38:58;;;;;;;2.27;2.17;;;;;;;21.06;100.00;97764.94;4939135;28;22130;-60
2022/07/02 10:41:28;;;;;;;1.93;1.93;;;;;;;21.20;100.00;97770.06;4949180;28;20229;-62
2022/07/02 10:43:57;;;;;;;1.90;1.80;;;;;;;21.23;97.69;97764.19;4981993;28;20892;-63
2022/07/02 10:46:25;;;;;;;2.07;2.00;;;;;;;21.68;100.00;97765.34;4967228;28;20317;-61
2022/07/02 10:48:54;;;;;;;2.13;2.03;;;;;;;21.16;96.45;97768.91;4969321;28;20201;-62
2022/07/02 10:51:25;;;;;;;1.70;1.70;;;;;;;20.77;99.00;97772.91;4978083;28;20847;-62
2022/07/02 10:53:56;;;;;;;2.40;2.30;;;;;;;20.58;100.00;97774.06;4957272;28;20201;-62
2022/07/02 10:56:25;;;;;;;2.53;2.43;;;;;;;21.22;100.00;97768.78;4962870;28;20229;-64
2022/07/02 10:58:54;;;;;;;2.30;2.30;;;;;;;21.50;100.00;97774.41;4982245;28;20645;-61
2022/07/02 11:01:24;;;;;;;3.03;2.47;;;;;;;21.69;100.00;97765.09;4957172;28;21201;-65
2022/07/02 11:03:56;;;;;;;2.30;2.20;;;;;;;21.39;100.00;97754.53;4968753;28;20233;-62
2022/07/02 11:06:26;;;;;;;1.80;1.80;;;;;;;21.62;99.36;97763.59;4980760;28;20316;-62
2022/07/02 11:08:56;;;;;;;2.37;2.27;;;;;;;21.83;98.75;97757.50;4971917;28;20285;-62
2022/07/02 11:11:46;;;;;;;3.23;2.33;;;;;;;21.72;97.63;97747.59;4959431;28;20204;-64
2022/07/02 11:14:17;;;;;;;2.43;2.20;;;;;;;21.92;94.30;97749.84;4964069;28;20193;-65
2022/07/02 11:16:47;;;;;;;2.07;1.97;;;;;;;21.77;92.41;97752.25;4974488;28;20310;-64
2022/07/02 11:19:18;;;;;;;1.50;1.50;;;;;;;21.32;94.46;97751.16;4949964;28;21729;-62
2022/07/02 11:21:46;;;;;;;1.93;1.87;;;;;;;21.39;93.21;97741.84;4979840;28;20206;-66
2022/07/02 11:24:16;;;;;;;2.47;2.27;;;;;;;21.40;94.72;97740.81;4978592;28;20252;-63
2022/07/02 11:26:45;;;;;;;2.10;2.00;;;;;;;21.50;92.72;97736.66;4943019;28;20217;-64
2022/07/02 11:29:14;;;;;;;1.97;1.83;;;;;;;21.76;87.32;97732.56;4970974;28;20272;-64
2022/07/02 11:31:46;;;;;;;2.10;1.90;;;;;;;21.97;87.98;97733.75;4987586;28;20795;-64
2022/07/02 11:34:16;;;;;;;3.33;1.77;;;;;;;22.41;80.62;97714.19;4949018;28;20235;-63
2022/07/02 11:36:44;;;;;;;2.47;2.07;;;;;;;22.70;86.38;97710.53;4978376;28;20221;-64
2022/07/02 11:39:14;;;;;;;1.80;1.33;;;;;;;22.40;81.71;97709.84;4982250;28;20494;-62
2022/07/02 11:41:44;;;;;;;1.90;1.80;;;;;;;22.95;80.40;97698.44;4939009;28;20214;-65